Dallas, Texas
Current Conditions -  °F | °C
As of 1:53 AM on Friday 24 Oct 2014 (Local Time) from KDAL Reporting Station
Few Clouds Few Clouds  
Wind Chill: 66°   Ceiling: Unl
Heat Index: 66°   Visibility: 10mi
Dew Point: 56°   Wind: 9mph
Humidity: 70%   Direction: 150°SSE
Pressure: 30.11"   Gusts: NA
Location:  32.78°N, 96.79°W
Report Text: KDAL 240653Z 15008KT 10SM FEW025 19/13 A3011 RMK AO2 SLP192 T01890133
Loading
Personal Weather Stations






























Interactive Weather Map New forecast layout! Learn more

10-Day Weather Forecast

Advertisements
Track Severe Weather on mobile